createdAt,value
2023-12-18T00:02:10.309Z,5.40
2023-12-18T00:04:38.248Z,5.07
2023-12-18T00:07:06.128Z,4.20
2023-12-18T00:09:34.181Z,4.50
2023-12-18T00:12:03.599Z,5.85
2023-12-18T00:14:31.783Z,5.43
2023-12-18T00:16:59.856Z,5.85
2023-12-18T00:19:27.914Z,4.88
2023-12-18T00:21:55.908Z,5.18
2023-12-18T00:24:23.934Z,4.43
2023-12-18T00:26:51.943Z,5.40
2023-12-18T00:29:21.198Z,6.53
2023-12-18T00:31:49.660Z,4.80
2023-12-18T00:34:17.718Z,5.70
2023-12-18T00:36:45.685Z,5.22
2023-12-18T00:39:16.722Z,4.95
2023-12-18T00:41:44.827Z,4.88
2023-12-18T00:44:13.015Z,4.40
2023-12-18T00:46:42.302Z,4.30
2023-12-18T00:49:10.524Z,4.75
2023-12-18T00:51:38.598Z,4.47
2023-12-18T00:54:06.732Z,6.55
2023-12-18T00:56:34.758Z,4.40
2023-12-18T00:59:02.722Z,5.72
2023-12-18T01:01:30.713Z,4.97
2023-12-18T01:04:00.151Z,5.03
2023-12-18T01:06:28.244Z,4.30
2023-12-18T01:08:56.147Z,4.30
2023-12-18T01:11:24.031Z,4.20
2023-12-18T01:13:51.887Z,4.53
2023-12-18T01:16:19.971Z,4.30
2023-12-18T01:18:48.194Z,4.28
2023-12-18T01:21:17.601Z,4.60
2023-12-18T01:23:45.570Z,4.55
2023-12-18T01:26:13.490Z,4.78
2023-12-18T01:28:42.144Z,5.60
2023-12-18T01:31:10.166Z,4.30
2023-12-18T01:33:38.581Z,4.40
2023-12-18T01:36:06.822Z,6.60
2023-12-18T01:38:36.157Z,5.15
2023-12-18T01:41:04.226Z,4.13
2023-12-18T01:43:32.161Z,4.57
2023-12-18T01:46:00.437Z,5.05
2023-12-18T01:48:28.646Z,4.03
2023-12-18T01:50:57.162Z,5.18
2023-12-18T01:53:24.221Z,5.53
2023-12-18T01:55:53.492Z,4.35
2023-12-18T01:58:21.381Z,4.53
2023-12-18T02:00:49.385Z,4.43
2023-12-18T02:03:18.240Z,5.13
2023-12-18T02:05:46.258Z,5.53
2023-12-18T02:08:14.183Z,4.35
2023-12-18T02:10:42.111Z,4.10
2023-12-18T02:13:12.607Z,4.80
2023-12-18T02:15:41.661Z,4.35
2023-12-18T02:18:09.840Z,4.32
2023-12-18T02:20:37.895Z,4.70
2023-12-18T02:23:07.114Z,4.32
2023-12-18T02:25:35.061Z,4.43
2023-12-18T02:28:03.033Z,4.00
2023-12-18T02:30:30.945Z,4.50
2023-12-18T02:32:58.991Z,3.80
2023-12-18T02:35:26.950Z,4.43
2023-12-18T02:37:54.846Z,4.40
2023-12-18T02:40:24.205Z,4.15
2023-12-18T02:42:52.141Z,4.95
2023-12-18T02:45:20.139Z,4.35
2023-12-18T02:47:48.114Z,5.15
2023-12-18T02:50:16.148Z,4.53
2023-12-18T02:52:44.088Z,4.00
2023-12-18T02:55:13.272Z,4.68
2023-12-18T02:57:42.961Z,3.90
2023-12-18T03:00:11.322Z,4.70
2023-12-18T03:02:39.337Z,3.65
2023-12-18T03:05:07.587Z,4.97
2023-12-18T03:07:35.587Z,4.30
2023-12-18T03:10:04.126Z,5.18
2023-12-18T03:12:32.149Z,4.25
2023-12-18T03:15:01.450Z,4.55
2023-12-18T03:17:29.402Z,4.68
2023-12-18T03:19:58.163Z,4.60
2023-12-18T03:22:26.056Z,3.83
2023-12-18T03:24:52.997Z,4.78
2023-12-18T03:27:20.988Z,3.72
2023-12-18T03:29:48.942Z,3.95
2023-12-18T03:32:18.297Z,3.95
2023-12-18T03:34:46.282Z,4.00
2023-12-18T03:37:14.166Z,4.30
2023-12-18T03:39:42.151Z,3.70
2023-12-18T03:42:10.168Z,4.00
2023-12-18T03:44:38.093Z,3.70
2023-12-18T03:47:06.036Z,3.80
2023-12-18T03:49:35.469Z,4.00
2023-12-18T03:52:03.455Z,3.90
2023-12-18T03:54:31.434Z,4.28
2023-12-18T03:56:59.327Z,4.28
2023-12-18T03:59:27.261Z,4.35
2023-12-18T04:01:55.194Z,3.92
2023-12-18T04:04:23.214Z,3.60
2023-12-18T04:06:52.521Z,4.55
2023-12-18T04:09:20.421Z,4.55
2023-12-18T04:11:48.313Z,4.45
2023-12-18T04:14:16.217Z,4.55
2023-12-18T04:16:44.123Z,4.20
2023-12-18T04:19:12.860Z,4.43
2023-12-18T04:21:40.928Z,4.78
2023-12-18T04:24:10.338Z,4.60
2023-12-18T04:26:38.343Z,4.15
2023-12-18T04:29:06.199Z,4.78
2023-12-18T04:31:34.161Z,4.15
2023-12-18T04:34:02.299Z,4.65
2023-12-18T04:36:30.366Z,3.38
2023-12-18T04:38:58.308Z,4.72
2023-12-18T04:41:27.550Z,4.53
2023-12-18T04:43:55.442Z,3.90
2023-12-18T04:46:23.562Z,4.13
2023-12-18T04:48:51.615Z,4.72
2023-12-18T04:51:19.676Z,4.03
2023-12-18T04:53:47.638Z,4.45
2023-12-18T04:56:15.509Z,3.95
2023-12-18T04:58:44.745Z,4.65
2023-12-18T05:01:12.674Z,4.13
2023-12-18T05:03:41.023Z,6.43
2023-12-18T05:06:19.437Z,4.47
2023-12-18T05:08:47.373Z,5.72
2023-12-18T05:11:15.297Z,4.72
2023-12-18T05:13:43.225Z,4.50
2023-12-18T05:16:12.594Z,3.83
2023-12-18T05:18:40.607Z,4.18
2023-12-18T05:21:08.618Z,4.00
2023-12-18T05:23:36.586Z,4.28
2023-12-18T05:26:04.631Z,5.38
2023-12-18T05:28:32.511Z,4.60
2023-12-18T05:31:00.512Z,3.83
2023-12-18T05:33:29.943Z,3.80
2023-12-18T05:35:57.928Z,4.07
2023-12-18T05:38:25.827Z,4.82
2023-12-18T05:40:53.777Z,4.10
2023-12-18T05:43:21.652Z,4.38
2023-12-18T05:45:49.664Z,3.95
2023-12-18T05:48:17.720Z,4.72
2023-12-18T05:50:47.037Z,3.83
2023-12-18T05:53:14.969Z,3.53
2023-12-18T05:55:42.902Z,4.45
2023-12-18T05:58:10.807Z,4.57
2023-12-18T06:00:39.630Z,4.20
2023-12-18T06:03:07.828Z,4.35
2023-12-18T06:05:35.868Z,4.55
2023-12-18T06:08:05.408Z,4.57
2023-12-18T06:10:33.328Z,4.10
2023-12-18T06:13:01.761Z,4.35
2023-12-18T06:15:29.752Z,5.28
2023-12-18T06:17:57.805Z,4.65
2023-12-18T06:20:25.753Z,6.90
2023-12-18T06:22:53.718Z,3.88
2023-12-18T06:25:23.013Z,4.45
2023-12-18T06:27:51.009Z,4.68
2023-12-18T06:30:19.132Z,5.05
2023-12-18T06:32:47.414Z,4.18
2023-12-18T06:35:15.563Z,5.32
2023-12-18T06:37:44.097Z,4.40
2023-12-18T06:40:12.360Z,4.75
2023-12-18T06:42:41.825Z,4.00
2023-12-18T06:45:10.415Z,5.20
2023-12-18T06:47:38.355Z,3.63
2023-12-18T06:50:06.792Z,6.10
2023-12-18T06:52:34.642Z,4.10
2023-12-18T06:55:02.861Z,4.43
2023-12-18T06:57:30.879Z,4.72
2023-12-18T07:00:00.386Z,4.65
2023-12-18T07:02:28.553Z,5.93
2023-12-18T07:04:56.491Z,4.13
2023-12-18T07:07:24.528Z,4.50
2023-12-18T07:09:52.764Z,4.78
2023-12-18T07:12:20.758Z,4.57
2023-12-18T07:14:48.730Z,4.75
2023-12-18T07:17:17.970Z,4.53
2023-12-18T07:19:45.897Z,4.75
2023-12-18T07:22:13.838Z,4.15
2023-12-18T07:24:41.799Z,4.40
2023-12-18T07:27:09.750Z,4.75
2023-12-18T07:29:37.701Z,5.20
2023-12-18T07:32:05.962Z,4.65
2023-12-18T07:34:35.411Z,4.85
2023-12-18T07:37:03.771Z,4.28
2023-12-18T07:39:32.320Z,5.88
2023-12-18T07:42:00.326Z,5.13
2023-12-18T07:44:28.291Z,3.92
2023-12-18T07:46:56.191Z,5.78
2023-12-18T07:49:24.360Z,5.10
2023-12-18T07:51:53.648Z,4.97
2023-12-18T07:54:21.547Z,4.47
2023-12-18T07:56:50.160Z,6.55
2023-12-18T07:59:18.467Z,4.50
2023-12-18T08:01:46.454Z,5.97
2023-12-18T08:04:15.058Z,4.63
2023-12-18T08:06:43.089Z,6.00
2023-12-18T08:09:12.658Z,6.22
2023-12-18T08:11:41.060Z,7.05
2023-12-18T08:14:09.004Z,5.70
2023-12-18T08:16:36.869Z,5.82
2023-12-18T08:19:04.947Z,4.70
2023-12-18T08:21:32.986Z,5.78
2023-12-18T08:24:00.965Z,5.10
2023-12-18T08:26:30.682Z,7.75
2023-12-18T08:28:58.740Z,5.95
2023-12-18T08:31:27.708Z,6.70
2023-12-18T08:33:55.731Z,6.25
2023-12-18T08:36:23.717Z,5.50
2023-12-18T08:38:51.594Z,7.40
2023-12-18T08:41:19.490Z,7.20
2023-12-18T08:43:58.221Z,7.95
2023-12-18T08:46:30.999Z,7.45
2023-12-18T08:48:58.997Z,7.93
2023-12-18T08:51:27.029Z,7.03
2023-12-18T08:53:56.109Z,6.05
2023-12-18T08:56:24.221Z,8.35
2023-12-18T08:58:53.754Z,5.82
2023-12-18T09:01:21.826Z,6.85
2023-12-18T09:03:51.968Z,7.20
2023-12-18T09:06:20.084Z,7.63
2023-12-18T09:08:48.032Z,6.20
2023-12-18T09:11:15.995Z,5.05
2023-12-18T09:13:43.909Z,5.63
2023-12-18T09:16:13.473Z,9.88
2023-12-18T09:18:41.452Z,8.90
2023-12-18T09:21:09.563Z,7.82
2023-12-18T09:23:37.555Z,7.03
2023-12-18T09:26:05.948Z,9.13
2023-12-18T09:28:33.871Z,6.85
2023-12-18T09:31:01.901Z,7.20
2023-12-18T09:33:31.452Z,8.52
2023-12-18T09:36:00.946Z,6.88
2023-12-18T09:38:29.787Z,6.75
2023-12-18T09:40:57.734Z,7.30
2023-12-18T09:43:27.746Z,6.45
2023-12-18T09:45:55.741Z,6.00
2023-12-18T09:48:24.474Z,5.60
2023-12-18T09:50:53.862Z,5.63
2023-12-18T09:53:22.478Z,6.32
2023-12-18T09:55:52.693Z,7.22
2023-12-18T09:58:20.727Z,6.40
2023-12-18T10:00:49.023Z,6.63
2023-12-18T10:03:18.356Z,7.40
2023-12-18T10:05:46.677Z,6.80
2023-12-18T10:08:16.263Z,5.82
2023-12-18T10:10:44.468Z,6.45
2023-12-18T10:13:13.186Z,6.13
2023-12-18T10:15:41.458Z,8.25
2023-12-18T10:18:10.481Z,6.88
2023-12-18T10:20:38.585Z,6.82
2023-12-18T10:23:06.526Z,7.43
2023-12-18T10:25:35.970Z,7.03
2023-12-18T10:28:04.370Z,8.30
2023-12-18T10:30:32.470Z,6.80
2023-12-18T10:33:00.943Z,8.55
2023-12-18T10:35:29.251Z,8.10
2023-12-18T10:37:57.176Z,6.95
2023-12-18T10:40:27.326Z,6.15
2023-12-18T10:43:06.747Z,5.93
2023-12-18T10:45:34.808Z,6.15
2023-12-18T10:48:02.913Z,9.65
2023-12-18T10:50:31.424Z,7.35
2023-12-18T10:52:59.452Z,8.32
2023-12-18T10:55:27.581Z,6.07
2023-12-18T10:57:56.497Z,7.32
2023-12-18T11:00:25.756Z,6.70
2023-12-18T11:02:53.785Z,10.30
2023-12-18T11:05:22.021Z,9.02
2023-12-18T11:07:49.912Z,8.70
2023-12-18T11:10:17.806Z,6.20
2023-12-18T11:12:45.844Z,5.25
2023-12-18T11:15:14.318Z,7.85
2023-12-18T11:17:46.664Z,7.43
2023-12-18T11:20:18.727Z,8.00
2023-12-18T11:22:46.692Z,7.22
2023-12-18T11:25:14.574Z,6.30
2023-12-18T11:27:42.971Z,6.55
2023-12-18T11:30:23.810Z,8.48
2023-12-18T11:32:53.586Z,6.80
2023-12-18T11:35:23.515Z,6.30
2023-12-18T11:37:51.884Z,7.07
2023-12-18T11:40:36.392Z,7.15
2023-12-18T11:43:04.667Z,7.35
2023-12-18T11:45:32.799Z,6.22
2023-12-18T11:48:03.563Z,9.60
2023-12-18T11:50:35.148Z,9.95
2023-12-18T11:53:04.024Z,10.18
2023-12-18T11:55:55.771Z,9.68
2023-12-18T11:58:26.929Z,9.98
2023-12-18T12:00:54.919Z,8.43
2023-12-18T12:03:23.583Z,8.07
2023-12-18T12:05:51.632Z,7.47
2023-12-18T12:08:19.575Z,8.90
2023-12-18T12:10:48.088Z,6.00
2023-12-18T12:13:19.028Z,8.30
2023-12-18T12:15:57.030Z,6.88
2023-12-18T12:18:27.423Z,9.48
2023-12-18T12:20:55.496Z,5.95
2023-12-18T12:23:23.425Z,6.65
2023-12-18T12:25:52.217Z,6.82
2023-12-18T12:28:21.634Z,6.90
2023-12-18T12:30:49.965Z,7.15
2023-12-18T12:33:18.351Z,9.10
2023-12-18T12:35:47.761Z,7.88
2023-12-18T12:38:16.553Z,8.20
2023-12-18T12:40:44.928Z,7.28
2023-12-18T12:43:12.951Z,6.90
2023-12-18T12:45:41.357Z,7.05
2023-12-18T12:48:08.430Z,6.88
2023-12-18T12:50:36.873Z,6.90
2023-12-18T12:53:06.369Z,8.77
2023-12-18T12:55:34.231Z,6.07
2023-12-18T12:58:02.877Z,7.32
2023-12-18T13:00:30.785Z,8.23
2023-12-18T13:02:58.738Z,8.68
2023-12-18T13:05:26.765Z,6.32
2023-12-18T13:07:56.784Z,7.53
2023-12-18T13:10:27.165Z,7.72
2023-12-18T13:12:55.367Z,8.75
2023-12-18T13:15:23.292Z,8.30
2023-12-18T13:17:51.293Z,8.45
2023-12-18T13:20:27.090Z,10.95
2023-12-18T13:22:56.889Z,7.10
2023-12-18T13:25:26.207Z,7.57
2023-12-18T13:27:55.140Z,8.43
2023-12-18T13:30:23.523Z,8.30
2023-12-18T13:32:51.629Z,8.00
2023-12-18T13:35:19.997Z,8.25
2023-12-18T13:37:47.979Z,7.53
2023-12-18T13:40:15.907Z,9.77
2023-12-18T13:42:45.215Z,7.22
2023-12-18T13:45:13.187Z,8.85
2023-12-18T13:47:41.293Z,8.25
2023-12-18T13:50:10.012Z,7.85
2023-12-18T13:52:39.797Z,7.50
2023-12-18T13:55:08.110Z,9.38
2023-12-18T13:57:43.237Z,6.97
2023-12-18T14:00:20.176Z,7.72
2023-12-18T14:02:49.887Z,8.80
2023-12-18T14:05:18.033Z,7.72
2023-12-18T14:07:46.168Z,6.90
2023-12-18T14:10:14.215Z,6.88
2023-12-18T14:12:42.417Z,6.88
2023-12-18T14:15:11.927Z,7.90
2023-12-18T14:17:41.345Z,7.53
2023-12-18T14:20:10.121Z,7.88
2023-12-18T14:22:39.105Z,8.30
2023-12-18T14:25:08.047Z,6.45
2023-12-18T14:27:36.032Z,8.00
2023-12-18T14:30:04.330Z,6.95
2023-12-18T14:32:32.343Z,7.28
2023-12-18T14:35:01.792Z,7.22
2023-12-18T14:37:29.787Z,7.72
2023-12-18T14:39:57.735Z,7.85
2023-12-18T14:42:25.829Z,6.65
2023-12-18T14:44:53.751Z,6.90
2023-12-18T14:47:21.632Z,7.35
2023-12-18T14:49:49.673Z,6.95
2023-12-18T14:52:19.022Z,6.55
2023-12-18T14:54:47.295Z,8.40
2023-12-18T14:57:15.296Z,9.80
2023-12-18T14:59:43.288Z,8.15
2023-12-18T15:02:12.617Z,6.97
2023-12-18T15:04:41.200Z,8.27
2023-12-18T15:07:09.312Z,7.30
2023-12-18T15:09:38.848Z,7.20
2023-12-18T15:12:07.166Z,7.47
2023-12-18T15:14:35.051Z,6.55
2023-12-18T15:17:06.039Z,6.45
2023-12-18T15:19:34.560Z,7.13
2023-12-18T15:22:02.659Z,6.50
2023-12-18T15:24:30.597Z,5.88
2023-12-18T15:26:59.853Z,8.38
2023-12-18T15:29:28.240Z,7.72
2023-12-18T15:31:56.162Z,6.18
2023-12-18T15:34:24.117Z,6.53
2023-12-18T15:36:55.240Z,6.05
2023-12-18T15:39:24.561Z,6.70
2023-12-18T15:41:52.986Z,8.40
2023-12-18T15:44:22.407Z,7.03
2023-12-18T15:46:50.306Z,6.90
2023-12-18T15:49:19.131Z,6.85
2023-12-18T15:54:15.168Z,6.45
2023-12-18T15:56:44.207Z,8.32
2023-12-18T15:59:12.097Z,6.07
2023-12-18T16:01:47.170Z,5.53
2023-12-18T16:04:15.270Z,5.68
2023-12-18T16:06:43.735Z,5.40
2023-12-18T16:09:12.319Z,5.13
2023-12-18T16:11:40.577Z,5.10
2023-12-18T16:14:08.559Z,4.75
2023-12-18T16:16:37.502Z,4.35
2023-12-18T16:19:06.860Z,5.72
2023-12-18T16:21:34.852Z,4.90
2023-12-18T16:24:02.780Z,5.22
2023-12-18T16:26:35.638Z,5.20
2023-12-18T16:29:04.426Z,5.10
2023-12-18T16:31:32.414Z,5.13
2023-12-18T16:34:00.565Z,4.95
2023-12-18T16:36:31.188Z,4.90
2023-12-18T16:38:59.217Z,4.20
2023-12-18T16:41:30.363Z,4.93
2023-12-18T16:43:58.916Z,10.45
2023-12-18T16:46:32.368Z,6.10
2023-12-18T16:49:05.030Z,5.05
2023-12-18T16:51:34.369Z,5.53
2023-12-18T16:54:02.285Z,4.82
2023-12-18T16:56:30.191Z,4.63
2023-12-18T16:58:58.138Z,4.90
2023-12-18T17:01:26.076Z,6.85
2023-12-18T17:03:56.653Z,18.52
2023-12-18T17:06:24.784Z,10.45
2023-12-18T17:08:56.140Z,9.90
2023-12-18T17:11:24.133Z,9.98
2023-12-18T17:13:51.989Z,9.23
2023-12-18T17:16:19.968Z,8.27
2023-12-18T17:18:48.373Z,8.32
2023-12-18T17:21:16.391Z,7.63
2023-12-18T17:23:44.283Z,7.50
2023-12-18T17:26:16.046Z,7.10
2023-12-18T17:28:44.053Z,7.53
2023-12-18T17:31:12.096Z,6.72
2023-12-18T17:33:41.134Z,6.50
2023-12-18T17:36:09.336Z,6.68
2023-12-18T17:38:37.208Z,7.20
2023-12-18T17:41:05.164Z,6.53
2023-12-18T17:43:34.440Z,6.93
2023-12-18T17:46:02.557Z,7.60
2023-12-18T17:48:30.641Z,6.35
2023-12-18T17:51:00.929Z,6.28
2023-12-18T17:53:28.886Z,8.50
2023-12-18T17:55:56.799Z,7.78
2023-12-18T17:58:24.745Z,6.65
2023-12-18T18:00:54.365Z,6.75
2023-12-18T18:03:22.359Z,5.85
2023-12-18T18:05:50.286Z,6.20
2023-12-18T18:08:18.176Z,6.68
2023-12-18T18:10:47.683Z,6.95
2023-12-18T18:13:15.853Z,6.43
2023-12-18T18:15:43.895Z,6.70
2023-12-18T18:18:13.371Z,6.72
2023-12-18T18:20:41.957Z,6.53
2023-12-18T18:23:09.892Z,6.55
2023-12-18T18:25:40.050Z,6.47
2023-12-18T18:28:08.952Z,6.47
2023-12-18T18:30:37.315Z,6.47
2023-12-18T18:33:06.872Z,6.07
2023-12-18T18:35:37.049Z,6.35
2023-12-18T18:38:05.174Z,5.70
2023-12-18T18:40:33.172Z,6.50
2023-12-18T18:43:01.223Z,7.30
2023-12-18T18:45:29.218Z,6.53
2023-12-18T18:47:57.111Z,7.43
2023-12-18T18:50:25.037Z,7.22
2023-12-18T18:52:54.281Z,6.50
2023-12-18T18:55:22.205Z,6.82
2023-12-18T18:57:50.192Z,6.50
2023-12-18T19:00:18.638Z,6.75
2023-12-18T19:02:46.612Z,6.60
2023-12-18T19:05:14.572Z,6.72
2023-12-18T19:07:43.476Z,6.53
2023-12-18T19:10:13.199Z,6.82
2023-12-18T19:12:44.376Z,7.57
2023-12-18T19:15:12.402Z,6.82
2023-12-18T19:17:41.402Z,6.93
2023-12-18T19:20:10.714Z,6.57
2023-12-18T19:22:39.153Z,6.68
2023-12-18T19:25:07.138Z,6.28
2023-12-18T19:27:36.494Z,6.05
2023-12-18T19:30:04.665Z,6.35
2023-12-18T19:32:32.674Z,5.28
2023-12-18T19:35:00.679Z,5.72
2023-12-18T19:37:30.048Z,6.00
2023-12-18T19:39:58.199Z,5.93
2023-12-18T19:42:26.272Z,5.85
2023-12-18T19:44:57.687Z,6.40
2023-12-18T19:47:27.128Z,6.40
2023-12-18T19:49:55.274Z,6.55
2023-12-18T19:52:23.298Z,5.55
2023-12-18T19:54:51.405Z,5.30
2023-12-18T19:57:19.390Z,5.88
2023-12-18T19:59:47.303Z,5.28
2023-12-18T20:02:17.292Z,6.00
2023-12-18T20:04:45.231Z,5.50
2023-12-18T20:07:13.208Z,5.80
2023-12-18T20:09:41.327Z,5.68
2023-12-18T20:12:09.296Z,5.60
2023-12-18T20:14:37.238Z,6.10
2023-12-18T20:17:05.400Z,5.40
2023-12-18T20:19:34.736Z,5.43
2023-12-18T20:22:02.853Z,5.63
2023-12-18T20:24:30.841Z,5.85
2023-12-18T20:26:59.455Z,6.10
2023-12-18T20:29:27.330Z,6.00
2023-12-18T20:31:55.436Z,5.65
2023-12-18T20:34:23.479Z,5.40
2023-12-18T20:36:53.156Z,5.93
2023-12-18T20:39:21.191Z,6.10
2023-12-18T20:41:49.146Z,5.63
2023-12-18T20:44:18.468Z,6.25
2023-12-18T20:46:46.419Z,6.25
2023-12-18T20:49:14.389Z,6.13
2023-12-18T20:51:42.475Z,5.60
2023-12-18T20:54:11.694Z,5.72
2023-12-18T20:56:39.697Z,6.07
2023-12-18T20:59:07.997Z,5.82
2023-12-18T21:01:36.358Z,5.70
2023-12-18T21:04:04.487Z,6.10
2023-12-18T21:06:32.624Z,6.10
2023-12-18T21:09:00.736Z,6.22
2023-12-18T21:11:30.071Z,6.15
2023-12-18T21:13:57.949Z,6.07
2023-12-18T21:16:25.841Z,6.55
2023-12-18T21:18:53.836Z,5.68
2023-12-18T21:21:21.949Z,5.75
2023-12-18T21:23:49.958Z,6.13
2023-12-18T21:26:17.894Z,6.22
2023-12-18T21:28:47.222Z,6.35
2023-12-18T21:31:15.250Z,6.10
2023-12-18T21:33:43.242Z,5.72
2023-12-18T21:36:14.195Z,6.03
2023-12-18T21:38:42.234Z,6.03
2023-12-18T21:41:10.155Z,5.82
2023-12-18T21:43:38.020Z,6.03
2023-12-18T21:46:07.252Z,5.82
2023-12-18T21:48:35.382Z,6.57
2023-12-18T21:51:03.401Z,6.10
2023-12-18T21:53:31.365Z,6.10
2023-12-18T21:55:59.275Z,6.82
2023-12-18T21:58:27.262Z,6.20
2023-12-18T22:00:55.237Z,6.68
2023-12-18T22:03:24.627Z,6.47
2023-12-18T22:05:54.215Z,6.40
2023-12-18T22:08:22.249Z,6.78
2023-12-18T22:10:50.178Z,6.35
2023-12-18T22:13:18.069Z,6.93
2023-12-18T22:15:46.036Z,6.30
2023-12-18T22:18:14.058Z,6.80
2023-12-18T22:20:44.836Z,6.65
2023-12-18T22:23:13.964Z,6.88
2023-12-18T22:25:41.853Z,6.60
2023-12-18T22:28:09.767Z,5.97
2023-12-18T22:30:37.740Z,6.40
2023-12-18T22:33:06.078Z,6.35
2023-12-18T22:35:34.037Z,6.20
2023-12-18T22:38:03.282Z,6.32
2023-12-18T22:40:32.104Z,6.93
2023-12-18T22:43:00.197Z,6.85
2023-12-18T22:45:28.265Z,6.47
2023-12-18T22:47:56.268Z,6.72
2023-12-18T22:50:28.036Z,6.82
2023-12-18T22:52:55.958Z,6.32
2023-12-18T22:55:25.258Z,6.63
2023-12-18T22:57:53.210Z,6.65
2023-12-18T23:00:28.933Z,6.70
2023-12-18T23:02:57.044Z,5.82
2023-12-18T23:05:25.050Z,6.90
2023-12-18T23:07:53.458Z,6.28
2023-12-18T23:10:21.318Z,6.97
2023-12-18T23:12:50.768Z,7.25
2023-12-18T23:15:18.947Z,6.47
2023-12-18T23:17:46.861Z,6.50
2023-12-18T23:20:14.809Z,6.70
2023-12-18T23:22:42.879Z,7.45
2023-12-18T23:25:10.944Z,6.80
2023-12-18T23:27:38.890Z,7.18
2023-12-18T23:30:09.009Z,7.55
2023-12-18T23:32:37.043Z,7.00
2023-12-18T23:35:05.317Z,6.72
2023-12-18T23:37:33.300Z,6.78
2023-12-18T23:40:01.356Z,7.20
2023-12-18T23:42:29.423Z,6.83
2023-12-18T23:44:57.338Z,6.57
2023-12-18T23:47:26.750Z,6.80
2023-12-18T23:49:54.794Z,6.88
2023-12-18T23:52:22.745Z,6.80
2023-12-18T23:54:50.748Z,6.72
2023-12-18T23:57:18.715Z,6.75
2023-12-18T23:59:46.604Z,7.03
